Latest Coastal Weather Observations for Albion Park

IDN60701

Issued at 1:05 am EST Thursday 24 April 2014 (issued every 10 minutes, with the page automatically refreshed every 10 minutes)

About coastal observations | Map of coastal stations | Coastal observations for NSW | Marine services | Other Formats
Station Details ID: 068241 Name: WOLLONGONG AIRPORT Lat: -34.56 Lon: 150.79 Height: 8.0 m
Data from the previous 72 hours. | See also: Recent months at Albion Park
Date/Time
EST
Temp

°C
Wind Pressure Rain
since 9am
mm
Weather Cloud Vis
km
Sea
Height
m
Swell
Dir
 
Speed
knots
Gust
knots
hPa Trend Height
m
Period
s
Dir
24/01:00am 12.9 WSW 0 0 1013.5 - 0.0 - - 10 - - - -
24/12:30am 12.9 SSW 2 4 1013.8 - 0.0 - - 10 - - - -
24/12:00am 13.4 SSW 2 5 1014.0 - 0.0 - - 10 - - - -
 
Date/Time
EST
Temp

°C
Wind Pressure Rain
since 9am
mm
Weather Cloud Vis
km
Sea
Height
m
Swell
Dir
 
Speed
knots
Gust
knots
hPa Trend Height
m
Period
s
Dir
23/11:30pm 13.7 SSW 1 5 1014.0 - 0.0 - - 10 - - - -
23/11:00pm 14.3 CALM 0 0 1014.2 - 0.0 - - 10 - - - -
23/10:30pm 14.4 CALM 0 0 1014.5 - 0.0 - - 10 - - - -
23/10:00pm 14.6 CALM 0 0 1014.7 - 0.0 - - 10 - - - -
23/09:30pm 14.8 WSW 1 5 1015.0 - 0.0 - - 10 - - - -
23/09:00pm 14.8 CALM 0 0 1015.1 - 0.0 - - 10 - - - -
23/08:30pm 15.2 W 4 5 1015.3 - 0.0 - - 10 - - - -
23/08:00pm 15.5 W 3 5 1015.4 - 0.0 - - 10 - - - -
23/07:30pm 15.7 NW 5 6 1015.4 - 0.0 - - 10 - - - -
23/07:00pm 15.8 WNW 4 5 1015.4 - 0.0 - - 10 - - - -
23/06:30pm 16.6 WNW 3 4 1015.3 - 0.0 - - 10 - - - -
23/06:00pm 17.7 NW 4 5 1015.1 - 0.0 - - 10 - - - -
23/05:30pm 20.9 NE 5 7 1014.7 - 0.0 - - 10 - - - -
23/05:00pm 21.6 ENE 7 8 1014.6 - 0.0 - - 10 - - - -
23/04:30pm 22.5 ENE 7 9 1014.5 - 0.0 - - 10 - - - -
23/04:00pm 23.1 ENE 7 8 1014.3 - 0.0 - - 10 - - - -
23/03:30pm 23.1 ENE 8 9 1014.5 - 0.0 - - 10 - - - -
23/03:00pm 23.6 ENE 8 10 1014.5 - 0.0 - - 10 - - - -
23/02:30pm 23.8 ENE 8 11 1014.6 - 0.0 - - 10 - - - -
23/02:00pm 24.1 ENE 8 10 1014.7 - 0.0 - - 10 - - - -
23/01:30pm 24.7 ENE 6 8 1014.8 - 0.0 - - 10 - - - -
23/01:00pm 24.3 ENE 8 10 1015.1 - 0.0 - - 10 - - - -
23/12:30pm 24.5 ENE 8 10 1015.6 - 0.0 - - 10 - - - -
23/12:00pm 23.9 ENE 8 9 1015.7 - 0.0 - - 10 - - - -
23/11:30am 24.0 ENE 7 9 1016.3 - 0.0 - - 10 - - - -
23/11:00am 24.5 ENE 4 5 1016.6 - 0.0 - - 10 - - - -
23/10:30am 23.3 S 1 3 1016.9 - 0.0 - - 10 - - - -
23/10:00am 22.3 W 3 4 1017.1 - 0.0 - - 10 - - - -
23/09:30am 21.0 WSW 1 3 1017.0 - 0.0 - - 10 - - - -
23/09:00am 18.9 W 1 3 1017.0 - 0.0 - - 10 - - - -
23/08:30am 16.3 CALM 0 0 1017.2 - 0.0 - - 10 - - - -
23/08:00am 14.3 CALM 0 0 1017.1 - 0.0 - - 10 - - - -
23/07:30am 13.0 CALM 0 0 1016.9 - 0.0 - - 10 - - - -
23/07:00am 11.0 CALM 0 0 1016.8 - 0.0 - - 10 - - - -
23/06:30am 10.1 CALM 0 0 1016.6 - 0.0 - - 10 - - - -
23/06:00am 10.0 SSW 1 3 1016.4 - 0.0 - - 10 - - - -
23/05:30am 10.0 CALM 0 0 1016.2 - 0.0 - - 10 - - - -
23/05:00am 9.8 SW 2 4 1016.2 - 0.0 - - 10 - - - -
23/04:30am 10.0 W 3 4 1016.1 - 0.0 - - 10 - - - -
23/04:00am 10.2 CALM 0 0 1015.9 - 0.0 - - 10 - - - -
23/03:30am 10.6 W 3 4 1015.9 - 0.0 - - 10 - - - -
23/03:00am 10.6 SSW 3 5 1015.9 - 0.0 - - 10 - - - -
23/02:30am 11.1 CALM 0 0 1016.0 - 0.0 - - 10 - - - -
23/02:00am 11.1 CALM 0 0 1016.0 - 0.0 - - 10 - - - -
23/01:30am 11.4 CALM 0 0 1016.1 - 0.0 - - 10 - - - -
23/01:00am 11.4 S 3 4 1016.3 - 0.0 - - 10 - - - -
23/12:30am 11.8 ESE 3 3 1016.2 - 0.0 - - 10 - - - -
23/12:00am 12.0 SSW 2 5 1016.0 - 0.0 - - 10 - - - -
 
Date/Time
EST
Temp

°C
Wind Pressure Rain
since 9am
mm
Weather Cloud Vis
km
Sea
Height
m
Swell
Dir
 
Speed
knots
Gust
knots
hPa Trend Height
m
Period
s
Dir
22/11:30pm 13.9 WSW 5 7 1015.9 - 0.0 - - 10 - - - -
22/11:00pm 17.9 WNW 9 12 1015.9 - 0.0 - - 10 - - - -
22/10:30pm 18.3 NW 9 11 1016.1 - 0.0 - - 10 - - - -
22/10:00pm 19.7 WNW 11 15 1016.1 - 0.0 - - 10 - - - -
22/09:30pm 20.4 WSW 6 12 1016.1 - 0.0 - - 10 - - - -
22/09:00pm 18.5 NNE 5 7 1015.9 - 0.0 - - 10 - - - -
22/08:30pm 18.6 SSE 5 10 1015.9 - 0.0 - - 10 - - - -
22/08:00pm 20.1 WNW 10 14 1015.4 - 0.0 - - 10 - - - -
22/07:30pm 20.8 NNW 10 15 1015.4 - 0.0 - - 10 - - - -
22/07:00pm 20.3 NW 12 16 1015.4 - 0.0 - - 10 - - - -
22/06:30pm 18.9 NNW 4 10 1015.2 - 0.0 - - 10 - - - -
22/06:00pm 17.6 W 1 4 1015.0 - 0.0 - - 10 - - - -
22/05:30pm 18.8 WNW 3 4 1014.7 - 0.0 - - 10 - - - -
22/05:00pm 20.2 CALM 0 4 1014.5 - 0.0 - - 10 - - - -
22/04:30pm 22.3 E 3 4 1014.3 - 0.0 - - 10 - - - -
22/04:00pm 22.8 E 5 7 1014.4 - 0.0 - - 10 - - - -
22/03:30pm 22.9 ESE 6 8 1014.4 - 0.0 - - 10 - - - -
22/03:00pm 22.9 ENE 7 9 1014.4 - 0.0 - - 10 - - - -
22/02:30pm 22.8 ENE 8 10 1014.3 - 0.0 - - 10 - - - -
22/02:00pm 22.9 ENE 9 12 1014.5 - 0.0 - - 10 - - - -
22/01:30pm 24.2 ENE 6 8 1014.6 - 0.0 - - 10 - - - -
22/01:00pm 24.9 E 4 6 1014.8 - 0.0 - - 10 - - - -
22/12:30pm 24.1 ENE 6 8 1015.4 - 0.0 - - 10 - - - -
22/12:00pm 23.8 E 7 9 1016.0 - 0.0 - - 10 - - - -
22/11:30am 23.8 E 5 7 1016.3 - 0.0 - - 10 - - - -
22/11:00am 23.4 ENE 5 8 1016.7 - 0.0 - - 10 - - - -
22/10:30am 23.1 N 4 6 1017.2 - 0.0 - - 10 - - - -
22/10:00am 22.0 N 5 7 1017.5 - 0.0 - - 10 - - - -
22/09:30am 19.7 NNW 3 4 1017.7 - 0.0 - - 10 - - - -
22/09:00am 16.9 WNW 1 3 1018.2 - 0.0 - - 10 - - - -
22/08:30am 14.1 CALM 0 0 1018.1 - 0.0 - - 10 - - - -
22/08:00am 12.3 CALM 0 0 1018.2 - 0.0 - - 10 - - - -
22/07:30am 10.8 W 2 6 1018.1 - 0.0 - - 10 - - - -
22/07:00am 9.4 WSW 3 5 1017.9 - 0.0 - - 10 - - - -
22/06:30am 9.1 SW 2 4 1017.8 - 0.0 - - 10 - - - -
22/06:00am 9.1 W 3 6 1018.1 - 0.0 - - 10 - - - -
22/05:30am 9.3 CALM 0 0 1018.0 - 0.0 - - 10 - - - -
22/05:00am 9.4 W 3 4 1017.9 - 0.0 - - 10 - - - -
22/04:30am 9.4 W 1 4 1018.0 - 0.0 - - 10 - - - -
22/04:00am 9.2 CALM 0 0 1018.1 - 0.0 - - 10 - - - -
22/03:30am 9.2 WNW 3 4 1018.1 - 0.0 - - 10 - - - -
22/03:00am 10.2 CALM 0 0 1018.1 - 0.0 - - 10 - - - -
22/02:30am 10.6 W 3 4 1018.5 - 0.0 - - 10 - - - -
22/02:00am 11.0 NW 1 4 1018.7 - 0.0 - - 10 - - - -
22/01:30am 11.3 CALM 0 0 1019.0 - 0.0 - - 10 - - - -
22/01:00am 11.3 CALM 0 0 1019.2 - 0.0 - - 10 - - - -
22/12:30am 12.1 WSW 2 3 1019.4 - 0.0 - - 10 - - - -
22/12:00am 12.2 CALM 0 0 1019.5 - 0.0 - - 10 - - - -
 
Date/Time
EST
Temp

°C
Wind Pressure Rain
since 9am
mm
Weather Cloud Vis
km
Sea
Height
m
Swell
Dir
 
Speed
knots
Gust
knots
hPa Trend Height
m
Period
s
Dir
21/11:30pm 12.5 CALM 0 0 1019.6 - 0.0 - - 10 - - - -
21/11:00pm 12.8 CALM 0 0 1019.8 - 0.0 - - 10 - - - -
21/10:30pm 12.8 W 3 4 1020.0 - 0.0 - - 10 - - - -
21/10:00pm 12.9 W 1 3 1020.3 - 0.0 - - 10 - - - -
21/09:30pm 12.9 W 4 5 1020.4 - 0.0 - - 10 - - - -
21/09:00pm 13.4 W 3 5 1020.1 - 0.0 - - 10 - - - -
21/08:30pm 13.9 NW 4 5 1020.1 - 0.0 - - 10 - - - -
21/08:00pm 14.5 WNW 6 6 1020.1 - 0.0 - - 10 - - - -
21/07:30pm 14.3 W 4 5 1020.0 - 0.0 - - 10 - - - -
21/07:00pm 14.8 W 5 6 1019.9 - 0.0 - - 10 - - - -
21/06:30pm 15.8 WNW 4 4 1019.6 - 0.0 - - 10 - - - -
21/06:00pm 17.5 SW 3 4 1019.3 - 0.0 - - 10 - - - -
21/05:30pm 19.1 SE 3 5 1018.9 - 0.0 - - 10 - - - -
21/05:00pm 20.0 S 5 7 1018.6 - 0.0 - - 10 - - - -
21/04:30pm 20.8 S 5 6 1018.7 - 0.0 - - 10 - - - -
21/04:00pm 21.9 ESE 7 10 1018.6 - 0.0 - - 10 - - - -
21/03:30pm 22.3 ESE 6 9 1018.5 - 0.0 - - 10 - - - -
21/03:00pm 22.6 E 7 10 1018.6 - 0.0 - - 10 - - - -
21/02:30pm 22.9 ENE 7 11 1018.5 - 0.0 - Partly cloudy 10 - - - -
21/02:00pm 23.2 N 7 9 1018.5 - 0.0 - - 10 - - - -
21/01:30pm 23.0 NE 5 8 1018.6 - 0.0 - Partly cloudy 10 - - - -
21/01:00pm 23.1 E 6 7 1018.8 - 0.0 - Partly cloudy 10 - - - -
21/12:30pm 22.8 NE 6 8 1019.1 - 0.0 - - 10 - - - -
21/12:00pm 23.2 ENE 6 8 1019.5 - 0.0 - - 10 - - - -
21/11:30am 23.0 NE 5 7 1019.9 - 0.0 - - 10 - - - -
21/11:00am 22.8 N 4 7 1020.1 - 0.0 - - 10 - - - -
21/10:30am 22.4 N 4 6 1020.3 - 0.0 - - 10 - - - -
21/10:00am 21.4 NW 3 5 1020.5 - 0.0 - - 10 - - - -
21/09:30am 20.3 NW 2 4 1020.6 - 0.0 - - 10 - - - -
21/09:00am 18.8 N 3 4 1020.6 - 0.0 - - 10 - - - -
21/08:30am 17.7 NNW 2 4 1020.5 - 0.0 - - 10 - - - -
21/08:00am 15.5 WSW 4 6 1020.4 - 0.0 - - 10 - - - -
21/07:30am 12.3 CALM 0 0 1020.2 - 0.0 - - 10 - - - -
21/07:00am 9.6 W 3 4 1019.9 - 0.0 - - 10 - - - -
21/06:30am 8.7 WSW 3 4 1019.5 - 0.0 - - 10 - - - -
21/06:00am 9.0 WSW 2 4 1019.3 - 0.0 - - 10 - - - -
21/05:30am 9.5 W 3 4 1019.1 - 0.0 - Partly cloudy 10 - - - -
21/05:00am 9.4 WSW 4 5 1018.8 - 0.0 - Partly cloudy 10 - - - -
21/04:30am 10.0 S 3 5 1018.4 - 0.0 - Partly cloudy 10 - - - -
21/04:00am 11.5 SW 4 6 1018.1 - 0.0 - - 10 - - - -
21/03:30am 12.5 WSW 5 6 1017.8 - 0.0 - - 10 - - - -
21/03:00am 12.2 W 4 6 1017.8 - 0.0 - - 10 - - - -
21/02:30am 14.0 W 7 11 1017.8 - 0.0 - - 10 - - - -
21/02:00am 14.5 W 12 17 1017.8 - 0.0 - - 10 - - - -
21/01:30am 14.7 W 14 18 1017.9 - 0.0 - Partly cloudy 10 - - - -

Other Formats:

Comma delimited format used in spreadsheet applications
http://www.bom.gov.au/fwo/IDN60701/IDN60701.95748.axf

JavaScript Object Notation format (JSON) in row-major order
http://www.bom.gov.au/fwo/IDN60701/IDN60701.95748.json